Time;durP1;ratioP1;P1;durP2;ratioP2;P2;SDS_P1;SDS_P2;PMS_P1;PMS_P2;Temp;Humidity;BMP_temperature;BMP_pressure;BME280_temperature;BME280_humidity;BME280_pressure;Samples;Min_cycle;Max_cycle;Signal;HPM_P1;HPM_P2
2022/08/13 00:02:19;;;;;;;1.50;1.40;;;20.80;50.70;;;;;;7380990;19;20385;-46
2022/08/13 00:04:59;;;;;;;1.50;1.40;;;20.80;50.70;;;;;;7379932;19;20434;-45
2022/08/13 00:07:29;;;;;;;2.83;1.63;;;20.80;50.80;;;;;;7387413;19;20423;-45
2022/08/13 00:10:00;;;;;;;2.47;1.40;;;20.80;50.90;;;;;;7389885;19;20504;-45
2022/08/13 00:15:18;;;;;;;2.87;1.57;;;20.50;51.50;;;;;;7388278;19;20384;-45
2022/08/13 00:17:49;;;;;;;1.90;1.80;;;20.40;51.70;;;;;;7388716;19;20376;-45
2022/08/13 00:20:24;;;;;;;1.87;1.77;;;20.40;52.00;;;;;;7390695;19;20424;-46
2022/08/13 00:22:54;;;;;;;2.90;1.73;;;20.40;51.90;;;;;;7387749;19;21162;-46
2022/08/13 00:25:23;;;;;;;4.67;1.67;;;20.60;51.70;;;;;;7388438;19;20500;-45
2022/08/13 00:27:57;;;;;;;1.33;1.23;;;20.60;51.60;;;;;;7389958;19;20981;-46
2022/08/13 00:30:33;;;;;;;1.50;1.40;;;20.60;51.40;;;;;;7387780;19;20384;-46
2022/08/13 00:33:04;;;;;;;3.20;1.60;;;20.60;51.50;;;;;;7388389;19;20376;-45
2022/08/13 00:35:36;;;;;;;2.73;1.50;;;20.50;51.80;;;;;;7389687;19;20392;-46
2022/08/13 00:38:10;;;;;;;4.20;1.50;;;20.40;52.50;;;;;;7390366;19;20979;-46
2022/08/13 00:40:44;;;;;;;1.53;1.43;;;20.40;52.20;;;;;;7389819;19;20387;-45
2022/08/13 00:43:14;;;;;;;5.00;2.20;;;20.50;52.00;;;;;;7387642;19;20760;-46
2022/08/13 00:45:44;;;;;;;2.17;1.70;;;20.50;51.90;;;;;;7388431;19;20379;-45
2022/08/13 00:50:59;;;;;;;1.87;1.50;;;20.50;52.00;;;;;;7389103;19;20456;-46
2022/08/13 00:53:30;;;;;;;3.70;1.80;;;20.60;51.80;;;;;;7387111;19;20405;-45
2022/08/13 00:56:01;;;;;;;1.60;1.50;;;20.60;52.00;;;;;;7387771;19;20383;-46
2022/08/13 00:58:34;;;;;;;2.03;1.70;;;20.60;51.80;;;;;;7386556;19;20383;-46
2022/08/13 01:01:05;;;;;;;1.80;1.70;;;20.80;51.60;;;;;;7385208;19;20499;-45
2022/08/13 01:03:37;;;;;;;1.83;1.50;;;20.90;51.50;;;;;;7386573;19;20369;-45
2022/08/13 01:06:10;;;;;;;1.63;1.53;;;21.00;51.40;;;;;;7385084;19;20418;-45
2022/08/13 01:08:41;;;;;;;2.00;1.80;;;20.80;51.80;;;;;;7387356;19;20755;-46
2022/08/13 01:11:13;;;;;;;1.57;1.47;;;20.70;51.90;;;;;;7387332;19;20952;-45
2022/08/13 01:13:48;;;;;;;2.20;2.00;;;20.70;52.10;;;;;;7388599;19;20533;-45
2022/08/13 01:16:18;;;;;;;2.53;1.40;;;20.70;52.10;;;;;;7386396;19;20376;-45
2022/08/13 01:18:52;;;;;;;1.77;1.67;;;20.50;52.50;;;;;;7386769;19;20376;-45
2022/08/13 01:21:26;;;;;;;2.27;1.60;;;20.30;53.00;;;;;;7386404;19;20399;-45
2022/08/13 01:23:58;;;;;;;2.47;1.97;;;20.20;53.20;;;;;;7388775;19;20914;-45
2022/08/13 01:26:30;;;;;;;2.83;1.80;;;20.30;53.40;;;;;;7386562;19;20387;-44
2022/08/13 01:29:04;;;;;;;1.70;1.20;;;20.30;53.30;;;;;;7388473;19;20380;-45
2022/08/13 01:31:36;;;;;;;2.33;1.33;;;20.30;53.40;;;;;;7387927;19;20751;-45
2022/08/13 01:34:06;;;;;;;2.03;1.77;;;20.30;53.20;;;;;;7386287;19;20371;-45
2022/08/13 01:36:36;;;;;;;2.27;2.07;;;20.20;53.50;;;;;;7387001;19;20443;-45
2022/08/13 01:39:10;;;;;;;2.10;1.90;;;20.20;53.60;;;;;;7385777;19;20372;-45
2022/08/13 01:41:40;;;;;;;1.50;1.40;;;20.10;53.80;;;;;;7387082;19;20438;-46
2022/08/13 01:44:09;;;;;;;1.70;1.60;;;20.10;54.00;;;;;;7386378;19;20416;-46
2022/08/13 01:52:05;;;;;;;2.23;2.03;;;19.80;54.70;;;;;;7384433;19;20452;-45
2022/08/13 01:54:39;;;;;;;1.40;1.30;;;19.70;54.80;;;;;;7382720;19;20877;-45
2022/08/13 01:57:11;;;;;;;2.27;1.83;;;19.70;55.00;;;;;;7387157;19;20392;-45
2022/08/13 01:59:42;;;;;;;2.10;1.90;;;19.60;55.40;;;;;;7386874;19;20387;-45
2022/08/13 02:02:13;;;;;;;2.07;1.77;;;19.60;55.30;;;;;;7384501;19;20942;-45
2022/08/13 02:04:44;;;;;;;3.10;1.60;;;19.60;55.50;;;;;;7383808;19;20853;-45
2022/08/13 02:07:16;;;;;;;2.07;1.87;;;19.50;55.70;;;;;;7385473;19;20398;-45
2022/08/13 02:09:48;;;;;;;1.57;1.47;;;19.50;55.90;;;;;;7384551;19;20937;-45
2022/08/13 02:12:18;;;;;;;3.10;1.60;;;19.50;56.00;;;;;;7385404;19;20372;-46
2022/08/13 02:14:48;;;;;;;2.67;1.87;;;19.40;56.20;;;;;;7383834;19;20734;-45
2022/08/13 02:17:33;;;;;;;3.73;1.90;;;19.40;56.20;;;;;;7384773;19;20372;-45
2022/08/13 02:20:02;;;;;;;6.57;2.00;;;19.40;56.40;;;;;;7385515;19;20424;-45
2022/08/13 02:22:32;;;;;;;2.30;1.60;;;19.30;56.80;;;;;;7384504;19;20384;-45
2022/08/13 02:25:06;;;;;;;3.50;1.73;;;19.30;57.00;;;;;;7385266;19;20384;-45
2022/08/13 02:27:35;;;;;;;1.80;1.70;;;19.30;57.00;;;;;;7384591;19;20375;-45
2022/08/13 02:30:07;;;;;;;2.00;1.90;;;19.20;57.50;;;;;;7383812;19;20380;-45
2022/08/13 02:32:37;;;;;;;4.53;2.20;;;19.10;57.50;;;;;;7381179;19;20395;-45
2022/08/13 02:35:08;;;;;;;2.23;1.87;;;19.00;58.00;;;;;;7382385;19;20444;-45
2022/08/13 02:37:38;;;;;;;2.30;1.83;;;19.00;58.20;;;;;;7384196;19;20458;-45
2022/08/13 02:41:38;;;;;;;2.47;1.80;;;19.00;58.60;;;;;;7385314;19;20380;-45
2022/08/13 02:42:59;;;;;;;1.77;1.53;;;19.00;58.50;;;;;;7382763;19;20369;-45
2022/08/13 02:45:30;;;;;;;1.53;1.43;;;18.90;58.70;;;;;;7383055;19;20380;-45
2022/08/13 02:48:00;;;;;;;1.93;1.83;;;18.80;59.10;;;;;;7383005;19;20387;-45
2022/08/13 02:50:30;;;;;;;3.00;2.03;;;18.80;59.40;;;;;;7386110;19;20399;-45
2022/08/13 02:52:59;;;;;;;1.90;1.70;;;18.80;59.50;;;;;;7385336;19;20371;-44
2022/08/13 02:55:32;;;;;;;1.90;1.80;;;18.80;59.50;;;;;;7384439;19;20423;-45
2022/08/13 02:58:01;;;;;;;2.10;1.80;;;18.80;59.50;;;;;;7384469;19;20388;-48
2022/08/13 03:00:31;;;;;;;3.00;2.50;;;18.80;59.60;;;;;;7382746;19;20419;-45
2022/08/13 03:03:01;;;;;;;1.70;1.60;;;18.70;59.80;;;;;;7385006;19;20376;-44
2022/08/13 03:05:31;;;;;;;2.10;1.90;;;18.70;59.70;;;;;;7380305;19;20930;-45
2022/08/13 03:08:01;;;;;;;1.87;1.77;;;18.80;59.90;;;;;;7383502;19;20474;-45
2022/08/13 03:10:33;;;;;;;1.53;1.43;;;18.90;59.60;;;;;;7383685;19;20384;-44
2022/08/13 03:13:07;;;;;;;2.20;1.80;;;18.90;59.40;;;;;;7384458;19;20447;-45
2022/08/13 03:15:39;;;;;;;2.07;1.87;;;19.10;59.40;;;;;;7382190;19;20373;-45
2022/08/13 03:18:09;;;;;;;2.00;1.90;;;19.10;59.30;;;;;;7383931;19;20410;-44
2022/08/13 03:20:38;;;;;;;2.33;2.13;;;18.90;59.50;;;;;;7384576;19;20376;-45
2022/08/13 03:23:10;;;;;;;1.97;1.87;;;19.00;59.40;;;;;;7382953;19;20407;-44
2022/08/13 03:25:43;;;;;;;2.17;2.03;;;19.10;59.30;;;;;;7384769;19;20395;-45
2022/08/13 03:28:13;;;;;;;2.17;1.73;;;19.10;59.20;;;;;;7382099;19;20512;-44
2022/08/13 03:30:43;;;;;;;5.33;2.20;;;19.10;59.20;;;;;;7384232;19;20365;-44
2022/08/13 03:33:14;;;;;;;3.10;1.60;;;19.00;59.40;;;;;;7382863;19;20376;-45
2022/08/13 03:35:44;;;;;;;2.63;1.83;;;18.80;60.00;;;;;;7383415;19;20426;-44
2022/08/13 03:38:16;;;;;;;1.60;1.50;;;18.80;60.10;;;;;;7383962;19;20391;-44
2022/08/13 03:43:30;;;;;;;2.73;1.80;;;18.80;61.20;;;;;;7392325;19;20384;-45
2022/08/13 03:46:00;;;;;;;1.83;1.70;;;18.60;60.90;;;;;;7390079;19;21344;-44
2022/08/13 03:48:30;;;;;;;2.17;1.97;;;18.50;61.60;;;;;;7390046;19;20376;-44
2022/08/13 03:51:01;;;;;;;2.27;1.83;;;18.50;61.60;;;;;;7389523;19;20380;-44
2022/08/13 03:53:31;;;;;;;1.90;1.70;;;18.60;61.30;;;;;;7390339;19;20391;-45
2022/08/13 03:56:03;;;;;;;1.93;1.83;;;18.50;61.60;;;;;;7389205;19;20367;-44
2022/08/13 03:58:33;;;;;;;2.13;1.93;;;18.70;61.10;;;;;;7391320;19;20419;-45
2022/08/13 04:01:04;;;;;;;2.37;2.00;;;18.60;61.10;;;;;;7388940;19;21133;-44
2022/08/13 04:03:36;;;;;;;1.87;1.73;;;18.50;62.20;;;;;;7388661;19;20931;-44
2022/08/13 04:06:09;;;;;;;2.63;2.30;;;18.50;62.30;;;;;;7389386;19;20380;-44
2022/08/13 04:08:41;;;;;;;3.57;2.10;;;18.30;62.50;;;;;;7388022;19;20364;-44
2022/08/13 04:11:16;;;;;;;2.00;1.87;;;18.10;63.40;;;;;;7389374;19;20485;-45
2022/08/13 04:13:46;;;;;;;3.10;2.00;;;18.20;63.60;;;;;;7388960;19;20391;-44
2022/08/13 04:16:18;;;;;;;2.53;1.73;;;18.10;63.70;;;;;;7390302;19;20364;-45
2022/08/13 04:18:48;;;;;;;3.20;2.13;;;18.00;64.30;;;;;;7387892;19;20380;-44
2022/08/13 04:21:20;;;;;;;2.30;2.10;;;18.10;64.10;;;;;;7389077;19;20365;-44
2022/08/13 04:23:50;;;;;;;2.40;1.97;;;18.20;63.20;;;;;;7390416;19;20391;-44
2022/08/13 04:26:23;;;;;;;2.60;2.03;;;18.30;63.90;;;;;;7385819;19;20392;-45
2022/08/13 04:28:53;;;;;;;2.00;1.90;;;18.30;62.80;;;;;;7389780;19;20411;-44
2022/08/13 04:31:23;;;;;;;2.97;1.87;;;18.40;62.70;;;;;;7388636;19;20414;-45
2022/08/13 04:33:53;;;;;;;2.20;2.00;;;18.40;62.70;;;;;;7388425;19;20402;-45
2022/08/13 04:36:22;;;;;;;2.20;2.00;;;18.40;62.50;;;;;;7387407;19;20376;-45
2022/08/13 04:38:52;;;;;;;3.77;2.27;;;18.40;62.60;;;;;;7387769;19;20757;-45
2022/08/13 04:41:24;;;;;;;2.47;1.97;;;18.30;62.60;;;;;;7389262;19;20395;-44
2022/08/13 04:43:53;;;;;;;4.20;1.83;;;18.30;63.30;;;;;;7388973;19;20369;-44
2022/08/13 04:46:23;;;;;;;2.60;2.40;;;18.30;63.10;;;;;;7386679;19;20364;-44
2022/08/13 04:48:55;;;;;;;3.60;2.50;;;18.20;63.10;;;;;;7389108;19;20379;-44
2022/08/13 04:51:26;;;;;;;4.23;2.97;;;18.10;63.60;;;;;;7387815;19;20471;-45
2022/08/13 04:53:56;;;;;;;2.30;2.10;;;18.10;63.80;;;;;;7386139;19;20373;-44
2022/08/13 04:56:28;;;;;;;4.10;2.20;;;18.10;64.00;;;;;;7386941;19;20391;-44
2022/08/13 04:58:57;;;;;;;5.23;2.27;;;17.90;64.20;;;;;;7387978;19;20380;-44
2022/08/13 05:01:27;;;;;;;3.63;2.03;;;17.90;64.60;;;;;;7384059;19;20439;-44
2022/08/13 05:04:00;;;;;;;2.47;2.13;;;17.90;64.80;;;;;;7387216;19;20396;-44
2022/08/13 05:06:29;;;;;;;3.53;2.57;;;17.90;65.00;;;;;;7385596;19;20419;-44
2022/08/13 05:09:00;;;;;;;3.03;1.93;;;17.90;64.80;;;;;;7388416;19;20942;-44
2022/08/13 05:11:32;;;;;;;2.33;2.10;;;17.90;65.00;;;;;;7386845;19;20380;-44
2022/08/13 05:14:02;;;;;;;2.50;2.30;;;17.90;65.00;;;;;;7388151;19;20380;-45
2022/08/13 05:16:31;;;;;;;2.53;2.20;;;18.00;65.30;;;;;;7385074;19;20548;-45
2022/08/13 05:19:03;;;;;;;1.90;1.80;;;18.20;64.60;;;;;;7385342;19;20387;-45
2022/08/13 05:21:35;;;;;;;2.33;2.13;;;18.20;64.30;;;;;;7385464;19;20472;-45
2022/08/13 05:24:07;;;;;;;4.47;2.07;;;18.30;64.10;;;;;;7386056;19;20810;-44
2022/08/13 05:26:39;;;;;;;3.90;2.37;;;18.30;64.10;;;;;;7385385;19;20368;-45
2022/08/13 05:29:09;;;;;;;3.60;2.60;;;18.20;64.50;;;;;;7385524;19;20395;-45
2022/08/13 05:31:41;;;;;;;2.67;2.10;;;18.40;64.40;;;;;;7385953;19;20384;-44
2022/08/13 05:34:10;;;;;;;2.87;2.50;;;18.30;64.20;;;;;;7385429;19;20384;-44
2022/08/13 05:36:42;;;;;;;4.23;2.50;;;18.40;63.90;;;;;;7387671;19;20380;-45
2022/08/13 05:39:12;;;;;;;3.90;1.80;;;18.40;63.60;;;;;;7384817;19;20388;-46
2022/08/13 05:41:46;;;;;;;2.30;2.10;;;18.50;63.90;;;;;;7386481;19;20950;-45
2022/08/13 05:44:16;;;;;;;3.67;2.53;;;18.70;63.50;;;;;;7384253;19;20434;-45
2022/08/13 05:46:45;;;;;;;5.30;2.67;;;18.80;62.90;;;;;;7384421;19;20380;-45
2022/08/13 05:49:15;;;;;;;2.43;2.23;;;19.00;62.10;;;;;;7384008;19;20387;-46
2022/08/13 05:51:48;;;;;;;3.17;2.63;;;19.10;62.20;;;;;;7384996;19;20408;-45
2022/08/13 05:54:19;;;;;;;3.93;2.53;;;19.20;61.80;;;;;;7383936;19;20469;-45
2022/08/13 05:56:52;;;;;;;4.77;2.27;;;19.30;61.40;;;;;;7387915;19;20430;-45
2022/08/13 06:04:46;;;;;;;3.90;2.20;;;19.90;59.00;;;;;;7381247;19;20436;-45
2022/08/13 06:07:19;;;;;;;3.07;2.77;;;20.20;58.30;;;;;;7384459;19;20376;-45
2022/08/13 06:09:48;;;;;;;3.50;2.47;;;20.20;57.80;;;;;;7385474;19;20419;-45
2022/08/13 06:12:21;;;;;;;2.17;1.97;;;20.30;57.00;;;;;;7383844;19;20906;-45
2022/08/13 06:14:52;;;;;;;2.90;2.43;;;20.40;56.90;;;;;;7385779;19;20388;-45
2022/08/13 06:17:22;;;;;;;5.20;2.63;;;20.40;56.60;;;;;;7382653;19;20845;-45
2022/08/13 06:19:52;;;;;;;2.70;2.50;;;20.70;56.00;;;;;;7385578;19;20372;-45
2022/08/13 06:22:23;;;;;;;2.73;2.30;;;20.80;55.70;;;;;;7384671;19;20380;-45
2022/08/13 06:24:53;;;;;;;2.60;2.40;;;21.10;54.80;;;;;;7383040;19;20384;-45
2022/08/13 06:27:25;;;;;;;3.30;2.20;;;21.30;54.80;;;;;;7381990;19;20381;-46
2022/08/13 06:29:55;;;;;;;3.70;2.30;;;21.50;54.00;;;;;;7381299;19;20376;-45
2022/08/13 06:32:25;;;;;;;3.00;2.80;;;21.70;53.50;;;;;;7382041;19;21244;-45
2022/08/13 06:34:54;;;;;;;3.10;2.47;;;21.90;53.00;;;;;;7382444;19;20406;-45
2022/08/13 06:37:24;;;;;;;2.80;2.13;;;21.90;52.00;;;;;;7383405;19;21048;-45
2022/08/13 06:39:55;;;;;;;3.43;2.30;;;22.10;52.20;;;;;;7382702;19;20418;-46
2022/08/13 06:42:28;;;;;;;3.77;2.50;;;22.20;52.00;;;;;;7384089;19;20391;-46
2022/08/13 06:44:59;;;;;;;3.50;2.30;;;22.40;51.80;;;;;;7381635;19;20467;-45
2022/08/13 06:47:31;;;;;;;2.20;2.00;;;22.40;51.40;;;;;;7383281;19;20974;-45
2022/08/13 06:50:02;;;;;;;3.50;2.40;;;22.50;51.40;;;;;;7382523;19;20412;-46
2022/08/13 06:52:32;;;;;;;2.37;2.17;;;22.60;51.10;;;;;;7382640;19;20379;-46
2022/08/13 06:55:01;;;;;;;2.77;2.27;;;22.70;51.20;;;;;;7381391;19;20383;-45
2022/08/13 06:57:35;;;;;;;2.53;2.13;;;22.90;51.20;;;;;;7383856;19;20760;-45
2022/08/13 07:00:09;;;;;;;3.23;2.47;;;23.00;50.70;;;;;;7380824;19;20412;-46
2022/08/13 07:02:42;;;;;;;2.30;2.10;;;23.00;50.60;;;;;;7382800;19;20372;-47
2022/08/13 07:05:12;;;;;;;3.60;2.50;;;23.10;50.50;;;;;;7379022;19;20438;-47
2022/08/13 07:07:45;;;;;;;3.00;2.40;;;23.30;50.10;;;;;;7381756;19;20379;-46
2022/08/13 07:10:15;;;;;;;2.57;2.37;;;23.40;49.90;;;;;;7383338;19;20422;-46
2022/08/13 07:12:47;;;;;;;5.23;2.40;;;23.60;49.30;;;;;;7382897;19;20918;-46
2022/08/13 07:15:19;;;;;;;2.53;2.33;;;23.70;49.00;;;;;;7382978;19;20752;-46
2022/08/13 07:17:50;;;;;;;3.17;2.20;;;23.80;49.00;;;;;;7387964;19;20389;-46
2022/08/13 07:20:20;;;;;;;6.70;2.33;;;23.90;48.40;;;;;;7389645;19;20883;-46
2022/08/13 07:22:49;;;;;;;2.97;2.40;;;24.00;48.40;;;;;;7388736;19;20922;-47
2022/08/13 07:25:21;;;;;;;2.30;2.10;;;24.20;48.30;;;;;;7391099;19;20372;-46
2022/08/13 07:27:54;;;;;;;4.10;2.30;;;24.40;47.90;;;;;;7387530;19;20384;-47
2022/08/13 07:30:24;;;;;;;2.87;2.27;;;24.50;47.70;;;;;;7391203;19;20384;-46
2022/08/13 07:32:54;;;;;;;2.10;2.00;;;24.60;47.70;;;;;;7389584;19;20819;-45
2022/08/13 07:35:23;;;;;;;3.33;2.90;;;24.70;47.40;;;;;;7389302;19;20775;-46
2022/08/13 07:37:53;;;;;;;2.77;2.53;;;24.80;47.00;;;;;;7391755;19;20423;-45
2022/08/13 07:40:23;;;;;;;4.70;2.53;;;24.90;46.70;;;;;;7390545;19;20368;-46
2022/08/13 07:42:58;;;;;;;3.90;2.33;;;25.10;46.80;;;;;;7389291;19;20439;-45
2022/08/13 07:45:30;;;;;;;1.97;1.83;;;25.20;46.10;;;;;;7390171;19;20404;-45
2022/08/13 07:48:01;;;;;;;2.27;2.07;;;25.10;46.30;;;;;;7387611;19;20388;-45
2022/08/13 07:50:36;;;;;;;2.60;2.40;;;25.20;46.40;;;;;;7387845;19;20395;-46
2022/08/13 07:53:06;;;;;;;2.50;2.10;;;25.30;46.20;;;;;;7390154;19;20515;-45
2022/08/13 07:55:35;;;;;;;2.50;2.10;;;25.50;46.10;;;;;;7386905;19;20388;-45
2022/08/13 07:58:08;;;;;;;2.30;2.00;;;25.70;45.60;;;;;;7391407;19;20375;-46
2022/08/13 08:00:37;;;;;;;2.50;2.07;;;25.90;45.60;;;;;;7386741;19;20428;-48
2022/08/13 08:03:06;;;;;;;2.20;2.00;;;26.10;44.70;;;;;;7390553;19;20898;-48
2022/08/13 08:05:36;;;;;;;3.00;2.47;;;26.20;44.90;;;;;;7386220;19;20391;-47
2022/08/13 08:08:06;;;;;;;2.37;1.90;;;26.30;44.40;;;;;;7388319;19;20383;-48
2022/08/13 08:10:39;;;;;;;2.37;2.17;;;26.30;44.50;;;;;;7389506;19;21226;-48
2022/08/13 08:13:10;;;;;;;2.60;2.40;;;26.40;44.00;;;;;;7389492;19;20388;-46
2022/08/13 08:15:45;;;;;;;2.50;2.30;;;26.60;44.10;;;;;;7390342;19;20388;-47
2022/08/13 08:18:16;;;;;;;4.60;2.50;;;26.70;44.00;;;;;;7390042;19;20438;-47
2022/08/13 08:20:45;;;;;;;3.07;2.30;;;26.90;43.80;;;;;;7387498;19;20380;-47
2022/08/13 08:23:15;;;;;;;2.37;2.17;;;27.10;43.60;;;;;;7389860;19;20376;-47
2022/08/13 08:25:45;;;;;;;2.10;1.93;;;27.30;43.10;;;;;;7389840;19;20928;-46
2022/08/13 08:28:20;;;;;;;2.50;2.30;;;27.50;42.40;;;;;;7387011;19;20388;-47
2022/08/13 08:30:51;;;;;;;4.33;2.50;;;27.50;42.90;;;;;;7389547;19;20372;-47
2022/08/13 08:33:26;;;;;;;2.60;2.10;;;27.70;42.80;;;;;;7388684;19;20380;-47
2022/08/13 08:35:58;;;;;;;3.83;2.10;;;27.90;42.00;;;;;;7389622;19;20379;-46
2022/08/13 08:44:00;;;;;;;1.97;1.87;;;27.70;41.90;;;;;;7388757;19;20392;-47
2022/08/13 08:46:34;;;;;;;2.07;1.87;;;27.80;41.80;;;;;;7388699;19;20402;-47
2022/08/13 08:49:06;;;;;;;2.20;2.10;;;28.00;41.70;;;;;;7383649;19;20386;-47
2022/08/13 08:51:36;;;;;;;3.07;2.50;;;28.10;41.20;;;;;;7388792;19;20407;-47
2022/08/13 08:54:09;;;;;;;2.13;1.93;;;28.30;41.00;;;;;;7387141;19;20396;-47
2022/08/13 08:56:43;;;;;;;3.73;2.50;;;28.50;40.70;;;;;;7389284;19;20878;-46
2022/08/13 08:59:15;;;;;;;3.07;2.00;;;28.60;40.80;;;;;;7386895;19;20388;-47
2022/08/13 09:01:47;;;;;;;2.20;2.10;;;28.50;40.80;;;;;;7386199;19;20784;-46
2022/08/13 09:04:18;;;;;;;2.43;2.23;;;28.30;41.00;;;;;;7387201;19;20394;-46
2022/08/13 09:06:52;;;;;;;2.50;2.30;;;28.40;40.70;;;;;;7388675;19;20990;-46
2022/08/13 09:09:22;;;;;;;2.70;1.97;;;28.30;41.10;;;;;;7386417;19;20901;-46
2022/08/13 09:11:55;;;;;;;3.47;1.93;;;28.20;41.00;;;;;;7385587;19;20387;-46
2022/08/13 09:14:30;;;;;;;2.10;1.90;;;28.50;41.00;;;;;;7388063;19;20816;-46
2022/08/13 09:17:02;;;;;;;2.10;1.90;;;28.80;40.40;;;;;;7388102;19;20383;-46
2022/08/13 09:19:32;;;;;;;1.87;1.77;;;29.20;40.10;;;;;;7387841;19;20391;-46
2022/08/13 09:22:01;;;;;;;2.00;1.90;;;29.70;39.20;;;;;;7386353;19;20373;-46
2022/08/13 09:24:31;;;;;;;2.50;1.93;;;29.90;38.40;;;;;;7387290;19;21290;-46
2022/08/13 09:27:00;;;;;;;2.27;1.83;;;30.00;38.50;;;;;;7386676;19;20443;-47
2022/08/13 09:29:33;;;;;;;2.50;2.20;;;30.10;38.40;;;;;;7386229;19;20384;-46
2022/08/13 09:32:05;;;;;;;2.27;2.07;;;30.40;38.20;;;;;;7386225;19;20762;-46
2022/08/13 09:34:35;;;;;;;1.80;1.70;;;30.20;37.30;;;;;;7384704;19;20385;-46
2022/08/13 09:37:05;;;;;;;2.37;1.73;;;30.10;37.60;;;;;;7385972;19;20387;-47
2022/08/13 09:39:38;;;;;;;3.17;2.10;;;30.50;37.50;;;;;;7385264;19;20703;-46
2022/08/13 09:42:15;;;;;;;2.70;2.13;;;31.10;36.50;;;;;;7386173;19;20422;-46
2022/08/13 09:44:49;;;;;;;1.63;1.53;;;31.90;35.50;;;;;;7388231;19;20387;-46
2022/08/13 09:47:18;;;;;;;2.37;1.70;;;32.50;34.50;;;;;;7384301;19;20372;-46
2022/08/13 09:49:48;;;;;;;1.83;1.60;;;;;;;;;;7387642;19;20412;-46
2022/08/13 09:52:19;;;;;;;1.97;1.87;;;33.50;32.30;;;;;;7386993;19;20379;-47
2022/08/13 09:54:51;;;;;;;1.80;1.70;;;34.40;31.10;;;;;;7386861;19;20725;-47
2022/08/13 09:57:21;;;;;;;1.70;1.60;;;35.00;30.10;;;;;;7386028;19;20379;-47
2022/08/13 09:59:54;;;;;;;1.70;1.60;;;35.40;29.60;;;;;;7384161;19;20376;-47
2022/08/13 10:02:23;;;;;;;1.50;1.40;;;36.00;28.90;;;;;;7386082;19;20753;-47
2022/08/13 10:04:55;;;;;;;3.73;2.20;;;36.00;28.30;;;;;;7383148;19;20403;-47
2022/08/13 10:07:26;;;;;;;2.37;1.63;;;36.30;28.30;;;;;;7386636;19;20372;-47
2022/08/13 10:09:56;;;;;;;1.20;1.10;;;36.20;28.30;;;;;;7385149;19;20908;-47
2022/08/13 10:12:27;;;;;;;2.17;1.67;;;35.60;28.60;;;;;;7383599;19;20390;-46
2022/08/13 10:14:59;;;;;;;1.60;1.50;;;35.90;28.90;;;;;;7386394;19;20738;-46
2022/08/13 10:17:29;;;;;;;1.80;1.47;;;36.70;28.20;;;;;;7385735;19;20372;-46
2022/08/13 10:19:59;;;;;;;1.70;1.50;;;36.60;27.10;;;;;;7383347;19;20844;-46
2022/08/13 10:22:28;;;;;;;1.57;1.47;;;35.90;27.70;;;;;;7384351;19;20382;-47
2022/08/13 10:24:59;;;;;;;6.77;1.57;;;35.20;28.30;;;;;;7385609;19;20985;-47
2022/08/13 10:27:31;;;;;;;2.80;1.70;;;34.40;29.10;;;;;;7385275;19;20388;-47
2022/08/13 10:30:03;;;;;;;1.83;1.50;;;33.80;29.90;;;;;;7386229;19;20371;-47
2022/08/13 10:32:33;;;;;;;2.60;1.67;;;33.40;30.30;;;;;;7386023;19;20412;-47
2022/08/13 10:35:03;;;;;;;2.80;1.60;;;32.80;30.70;;;;;;7383075;19;20943;-47
2022/08/13 10:37:34;;;;;;;1.60;1.50;;;32.60;30.80;;;;;;7385128;19;20387;-47
2022/08/13 10:40:06;;;;;;;2.10;1.47;;;32.60;30.70;;;;;;7383335;19;20364;-47
2022/08/13 10:42:36;;;;;;;2.17;1.87;;;32.50;30.50;;;;;;7385000;19;20426;-47
2022/08/13 10:45:10;;;;;;;3.73;2.03;;;32.30;31.30;;;;;;7383336;19;20416;-47
2022/08/13 10:47:47;;;;;;;4.93;2.47;;;32.00;31.00;;;;;;7382170;19;20391;-47
2022/08/13 10:50:20;;;;;;;3.13;1.60;;;31.80;31.40;;;;;;7383402;19;20372;-47
2022/08/13 10:52:50;;;;;;;2.07;1.60;;;31.50;31.90;;;;;;7384563;19;20392;-47
2022/08/13 10:55:22;;;;;;;1.67;1.57;;;31.60;31.60;;;;;;7382400;19;20869;-47
2022/08/13 10:57:51;;;;;;;3.03;1.50;;;31.90;31.50;;;;;;7384292;19;20376;-47
2022/08/13 11:00:23;;;;;;;1.70;1.60;;;33.10;30.40;;;;;;7380622;19;20439;-48
2022/08/13 11:02:53;;;;;;;4.90;1.80;;;35.20;28.60;;;;;;7383517;19;20367;-48
2022/08/13 11:05:25;;;;;;;2.50;1.77;;;37.00;26.70;;;;;;7380080;19;20379;-48
2022/08/13 11:07:56;;;;;;;2.80;1.70;;;38.80;25.50;;;;;;7382058;19;20416;-48
2022/08/13 11:10:26;;;;;;;3.23;1.67;;;39.90;24.30;;;;;;7382080;19;20456;-48
2022/08/13 11:12:55;;;;;;;1.80;1.70;;;40.40;25.00;;;;;;7384056;19;20928;-49
2022/08/13 11:15:27;;;;;;;2.20;1.50;;;41.40;23.50;;;;;;7382798;19;20395;-49
2022/08/13 11:17:57;;;;;;;15.07;1.40;;;42.40;22.50;;;;;;7384214;19;20391;-49
2022/08/13 11:20:29;;;;;;;2.33;1.33;;;42.10;22.50;;;;;;7381399;19;20372;-49
2022/08/13 11:22:59;;;;;;;1.77;1.40;;;42.40;22.40;;;;;;7384218;19;20376;-49
2022/08/13 11:25:29;;;;;;;2.70;1.30;;;42.90;22.00;;;;;;7383607;19;20748;-49
2022/08/13 11:27:58;;;;;;;1.53;1.43;;;43.10;21.80;;;;;;7381829;19;20372;-49
2022/08/13 11:30:33;;;;;;;1.40;1.30;;;42.80;21.80;;;;;;7383132;19;20379;-48
2022/08/13 11:33:02;;;;;;;2.80;1.90;;;42.90;22.00;;;;;;7383053;19;21371;-48
2022/08/13 11:35:34;;;;;;;2.70;1.30;;;43.80;21.50;;;;;;7384015;19;20376;-48
2022/08/13 11:38:08;;;;;;;1.80;1.70;;;44.60;21.10;;;;;;7382975;19;20385;-49
2022/08/13 11:40:38;;;;;;;2.57;1.57;;;45.00;20.80;;;;;;7382322;19;20415;-48
2022/08/13 11:43:10;;;;;;;1.43;1.33;;;44.70;21.20;;;;;;7382466;19;20376;-48
2022/08/13 11:45:42;;;;;;;1.63;1.40;;;45.00;20.40;;;;;;7384650;19;20372;-49
2022/08/13 11:48:14;;;;;;;3.73;1.50;;;45.30;20.70;;;;;;7384592;19;20384;-48
2022/08/13 11:50:46;;;;;;;1.30;1.20;;;45.90;20.20;;;;;;7381598;19;20444;-49
2022/08/13 11:53:15;;;;;;;1.67;1.50;;;46.10;19.80;;;;;;7380173;19;20444;-48
2022/08/13 11:55:45;;;;;;;1.57;1.43;;;;;;;;;;7383816;19;20383;-48
2022/08/13 11:58:14;;;;;;;1.60;1.50;;;45.50;19.50;;;;;;7382290;19;20383;-48
2022/08/13 12:00:46;;;;;;;2.70;1.47;;;45.60;20.80;;;;;;7382598;19;20832;-48
2022/08/13 12:03:16;;;;;;;2.77;1.23;;;45.70;20.20;;;;;;7387483;19;20406;-48
2022/08/13 12:05:45;;;;;;;1.30;1.20;;;46.00;20.10;;;;;;7389076;19;20460;-48
2022/08/13 12:08:16;;;;;;;1.50;1.30;;;46.10;19.70;;;;;;7388780;19;20937;-48
2022/08/13 12:10:49;;;;;;;1.40;1.30;;;46.10;19.60;;;;;;7386031;19;20360;-48
2022/08/13 12:13:18;;;;;;;1.50;1.40;;;45.90;19.90;;;;;;7388031;19;20402;-48
2022/08/13 12:15:50;;;;;;;1.90;1.40;;;45.60;20.10;;;;;;7386975;19;20411;-48
2022/08/13 12:18:21;;;;;;;2.60;1.20;;;46.10;19.60;;;;;;7387673;19;20986;-48
2022/08/13 12:20:51;;;;;;;1.30;1.20;;;46.00;19.90;;;;;;7387944;19;20708;-48
2022/08/13 12:23:20;;;;;;;1.80;1.70;;;46.60;19.50;;;;;;7387043;19;20377;-49
2022/08/13 12:25:50;;;;;;;1.37;1.27;;;46.40;19.40;;;;;;7386102;19;20389;-46
2022/08/13 12:28:22;;;;;;;1.30;1.20;;;45.00;20.10;;;;;;7388195;19;20406;-47
2022/08/13 12:30:57;;;;;;;2.00;1.53;;;44.80;20.50;;;;;;7387976;19;20368;-47
2022/08/13 12:33:28;;;;;;;2.70;1.50;;;45.00;20.20;;;;;;7386812;19;20380;-47
2022/08/13 12:35:59;;;;;;;2.13;1.20;;;45.10;20.30;;;;;;7388666;19;20399;-48
2022/08/13 12:38:29;;;;;;;2.90;1.50;;;45.40;20.50;;;;;;7389448;19;20384;-47
2022/08/13 12:40:59;;;;;;;2.50;1.47;;;45.70;19.80;;;;;;7389565;19;20420;-47
2022/08/13 12:43:29;;;;;;;1.50;1.37;;;45.70;19.80;;;;;;7385790;19;20499;-47
2022/08/13 12:46:01;;;;;;;1.57;1.10;;;45.70;19.50;;;;;;7387262;19;20376;-47
2022/08/13 12:48:33;;;;;;;1.33;1.23;;;45.70;19.80;;;;;;7385392;19;20392;-47
2022/08/13 12:51:02;;;;;;;1.53;1.33;;;45.60;19.80;;;;;;7388496;19;20492;-47
2022/08/13 12:53:31;;;;;;;1.47;1.37;;;45.00;19.80;;;;;;7388039;19;20371;-47
2022/08/13 12:56:01;;;;;;;3.30;1.63;;;45.20;19.80;;;;;;7385476;19;20391;-47
2022/08/13 12:58:30;;;;;;;1.87;1.43;;;45.00;19.90;;;;;;7386172;19;20400;-47
2022/08/13 13:01:05;;;;;;;1.40;1.30;;;44.40;20.20;;;;;;7387072;19;20432;-49
2022/08/13 13:03:35;;;;;;;1.20;1.10;;;44.20;20.40;;;;;;7387951;19;20776;-48
2022/08/13 13:06:07;;;;;;;2.37;1.60;;;43.60;20.60;;;;;;7386958;19;20391;-49
2022/08/13 13:08:37;;;;;;;1.53;1.40;;;43.30;20.80;;;;;;7385875;19;20420;-49
2022/08/13 13:11:09;;;;;;;1.60;1.50;;;42.90;20.90;;;;;;7387370;19;20406;-48
2022/08/13 13:13:41;;;;;;;2.33;1.40;;;41.80;21.50;;;;;;7385915;19;20890;-48
2022/08/13 13:16:15;;;;;;;1.97;1.40;;;41.20;21.90;;;;;;7386370;19;21589;-49
2022/08/13 13:18:48;;;;;;;1.80;1.70;;;40.80;22.20;;;;;;7361001;19;20502;-49
2022/08/13 13:21:17;;;;;;;1.53;1.40;;;41.70;21.60;;;;;;7383537;19;20368;-49
2022/08/13 13:23:47;;;;;;;1.93;1.40;;;42.00;21.30;;;;;;7386412;19;20384;-49
2022/08/13 13:26:16;;;;;;;1.50;1.40;;;42.50;21.00;;;;;;7384874;19;20395;-49
2022/08/13 13:28:54;;;;;;;2.00;1.13;;;42.30;21.00;;;;;;7384867;19;20896;-49
2022/08/13 13:31:26;;;;;;;1.50;1.40;;;41.60;20.90;;;;;;7385793;19;20914;-48
2022/08/13 13:33:58;;;;;;;1.63;1.53;;;40.80;21.60;;;;;;7385030;19;20491;-48